sensor_id;sensor_type;location;lat;lon;timestamp;P1;durP1;ratioP1;P2;durP2;ratioP2
75810;SDS011;64449;50.016;19.954;2023-04-01T00:01:07;2.10;;;0.50;;
75810;SDS011;64449;50.016;19.954;2023-04-01T00:03:33;2.50;;;0.70;;
75810;SDS011;64449;50.016;19.954;2023-04-01T00:05:59;2.90;;;0.90;;
75810;SDS011;64449;50.016;19.954;2023-04-01T00:08:26;2.60;;;0.80;;
75810;SDS011;64449;50.016;19.954;2023-04-01T00:10:51;1.10;;;0.40;;
75810;SDS011;64449;50.016;19.954;2023-04-01T00:13:17;2.20;;;0.80;;
75810;SDS011;64449;50.016;19.954;2023-04-01T00:15:44;4.10;;;0.80;;
75810;SDS011;64449;50.016;19.954;2023-04-01T00:18:10;1.90;;;0.80;;
75810;SDS011;64449;50.016;19.954;2023-04-01T00:20:36;1.80;;;0.60;;
75810;SDS011;64449;50.016;19.954;2023-04-01T00:23:02;2.30;;;1.10;;
75810;SDS011;64449;50.016;19.954;2023-04-01T00:25:28;2.90;;;0.90;;
75810;SDS011;64449;50.016;19.954;2023-04-01T00:27:54;2.60;;;1.00;;
75810;SDS011;64449;50.016;19.954;2023-04-01T00:30:19;2.50;;;0.90;;
75810;SDS011;64449;50.016;19.954;2023-04-01T00:32:45;1.80;;;0.70;;
75810;SDS011;64449;50.016;19.954;2023-04-01T00:35:11;1.90;;;0.80;;
75810;SDS011;64449;50.016;19.954;2023-04-01T00:37:38;3.20;;;0.80;;
75810;SDS011;64449;50.016;19.954;2023-04-01T00:40:06;2.40;;;0.80;;
75810;SDS011;64449;50.016;19.954;2023-04-01T00:42:32;3.10;;;0.80;;
75810;SDS011;64449;50.016;19.954;2023-04-01T00:44:58;1.80;;;0.50;;
75810;SDS011;64449;50.016;19.954;2023-04-01T00:47:43;5.50;;;0.80;;
75810;SDS011;64449;50.016;19.954;2023-04-01T00:50:09;2.70;;;0.90;;
75810;SDS011;64449;50.016;19.954;2023-04-01T00:52:35;2.30;;;0.70;;
75810;SDS011;64449;50.016;19.954;2023-04-01T00:55:01;3.40;;;0.90;;
75810;SDS011;64449;50.016;19.954;2023-04-01T00:57:31;2.80;;;0.80;;
75810;SDS011;64449;50.016;19.954;2023-04-01T01:00:03;3.20;;;0.80;;
75810;SDS011;64449;50.016;19.954;2023-04-01T01:02:32;3.00;;;1.10;;
75810;SDS011;64449;50.016;19.954;2023-04-01T01:04:58;1.60;;;0.60;;
75810;SDS011;64449;50.016;19.954;2023-04-01T01:07:30;3.70;;;0.70;;
75810;SDS011;64449;50.016;19.954;2023-04-01T01:12:40;2.60;;;1.00;;
75810;SDS011;64449;50.016;19.954;2023-04-01T01:18:04;2.00;;;0.80;;
75810;SDS011;64449;50.016;19.954;2023-04-01T01:31:57;2.30;;;0.70;;
75810;SDS011;64449;50.016;19.954;2023-04-01T01:37:15;2.60;;;0.80;;
75810;SDS011;64449;50.016;19.954;2023-04-01T01:39:43;3.60;;;0.80;;
75810;SDS011;64449;50.016;19.954;2023-04-01T01:42:13;1.80;;;0.60;;
75810;SDS011;64449;50.016;19.954;2023-04-01T01:44:40;2.30;;;0.90;;
75810;SDS011;64449;50.016;19.954;2023-04-01T01:47:09;2.30;;;1.10;;
75810;SDS011;64449;50.016;19.954;2023-04-01T01:49:35;2.40;;;1.00;;
75810;SDS011;64449;50.016;19.954;2023-04-01T01:52:04;2.20;;;0.70;;
75810;SDS011;64449;50.016;19.954;2023-04-01T01:54:29;2.10;;;0.70;;
75810;SDS011;64449;50.016;19.954;2023-04-01T01:56:58;2.90;;;1.00;;
75810;SDS011;64449;50.016;19.954;2023-04-01T01:59:30;1.70;;;0.70;;
75810;SDS011;64449;50.016;19.954;2023-04-01T02:02:00;1.90;;;0.70;;
75810;SDS011;64449;50.016;19.954;2023-04-01T02:04:33;1.80;;;0.70;;
75810;SDS011;64449;50.016;19.954;2023-04-01T02:07:04;3.20;;;0.70;;
75810;SDS011;64449;50.016;19.954;2023-04-01T02:09:36;1.70;;;0.70;;
75810;SDS011;64449;50.016;19.954;2023-04-01T02:12:03;2.60;;;1.10;;
75810;SDS011;64449;50.016;19.954;2023-04-01T02:14:39;2.40;;;0.80;;
75810;SDS011;64449;50.016;19.954;2023-04-01T02:17:09;3.30;;;1.10;;
75810;SDS011;64449;50.016;19.954;2023-04-01T02:19:50;3.10;;;0.80;;
75810;SDS011;64449;50.016;19.954;2023-04-01T02:22:22;2.50;;;1.00;;
75810;SDS011;64449;50.016;19.954;2023-04-01T02:24:50;2.60;;;0.90;;
75810;SDS011;64449;50.016;19.954;2023-04-01T02:27:18;2.50;;;1.00;;
75810;SDS011;64449;50.016;19.954;2023-04-01T02:29:45;2.30;;;1.10;;
75810;SDS011;64449;50.016;19.954;2023-04-01T02:32:11;2.90;;;1.10;;
75810;SDS011;64449;50.016;19.954;2023-04-01T02:34:38;2.00;;;0.80;;
75810;SDS011;64449;50.016;19.954;2023-04-01T02:37:04;3.20;;;1.00;;
75810;SDS011;64449;50.016;19.954;2023-04-01T02:39:30;2.60;;;1.00;;
75810;SDS011;64449;50.016;19.954;2023-04-01T02:41:56;1.80;;;0.80;;
75810;SDS011;64449;50.016;19.954;2023-04-01T02:44:21;4.50;;;1.10;;
75810;SDS011;64449;50.016;19.954;2023-04-01T02:46:47;2.50;;;1.10;;
75810;SDS011;64449;50.016;19.954;2023-04-01T02:49:12;4.00;;;1.20;;
75810;SDS011;64449;50.016;19.954;2023-04-01T02:51:37;3.20;;;0.80;;
75810;SDS011;64449;50.016;19.954;2023-04-01T02:54:03;3.20;;;1.00;;
75810;SDS011;64449;50.016;19.954;2023-04-01T02:56:28;2.50;;;0.90;;
75810;SDS011;64449;50.016;19.954;2023-04-01T02:58:54;2.10;;;0.90;;
75810;SDS011;64449;50.016;19.954;2023-04-01T03:01:20;4.00;;;1.50;;
75810;SDS011;64449;50.016;19.954;2023-04-01T03:03:45;5.70;;;1.30;;
75810;SDS011;64449;50.016;19.954;2023-04-01T03:06:12;2.20;;;0.90;;
75810;SDS011;64449;50.016;19.954;2023-04-01T03:08:39;3.70;;;1.00;;
75810;SDS011;64449;50.016;19.954;2023-04-01T03:11:05;3.60;;;1.00;;
75810;SDS011;64449;50.016;19.954;2023-04-01T03:13:31;2.10;;;0.90;;
75810;SDS011;64449;50.016;19.954;2023-04-01T03:15:56;2.90;;;0.90;;
75810;SDS011;64449;50.016;19.954;2023-04-01T03:18:22;3.70;;;0.90;;
75810;SDS011;64449;50.016;19.954;2023-04-01T03:20:47;4.30;;;1.10;;
75810;SDS011;64449;50.016;19.954;2023-04-01T03:23:13;3.30;;;1.00;;
75810;SDS011;64449;50.016;19.954;2023-04-01T03:25:38;3.30;;;1.20;;
75810;SDS011;64449;50.016;19.954;2023-04-01T03:28:04;2.20;;;0.90;;
75810;SDS011;64449;50.016;19.954;2023-04-01T03:30:30;2.80;;;1.00;;
75810;SDS011;64449;50.016;19.954;2023-04-01T03:32:56;2.00;;;0.90;;
75810;SDS011;64449;50.016;19.954;2023-04-01T03:35:23;1.30;;;0.80;;
75810;SDS011;64449;50.016;19.954;2023-04-01T03:37:52;2.40;;;1.00;;
75810;SDS011;64449;50.016;19.954;2023-04-01T03:40:18;2.20;;;0.80;;
75810;SDS011;64449;50.016;19.954;2023-04-01T03:42:44;1.80;;;0.90;;
75810;SDS011;64449;50.016;19.954;2023-04-01T03:45:10;3.30;;;0.90;;
75810;SDS011;64449;50.016;19.954;2023-04-01T03:47:37;3.20;;;1.20;;
75810;SDS011;64449;50.016;19.954;2023-04-01T03:50:03;4.80;;;1.40;;
75810;SDS011;64449;50.016;19.954;2023-04-01T03:52:30;4.40;;;1.10;;
75810;SDS011;64449;50.016;19.954;2023-04-01T03:54:55;4.30;;;1.20;;
75810;SDS011;64449;50.016;19.954;2023-04-01T03:57:21;4.00;;;1.30;;
75810;SDS011;64449;50.016;19.954;2023-04-01T03:59:46;3.10;;;1.00;;
75810;SDS011;64449;50.016;19.954;2023-04-01T04:02:12;2.60;;;1.10;;
75810;SDS011;64449;50.016;19.954;2023-04-01T04:04:37;2.80;;;1.10;;
75810;SDS011;64449;50.016;19.954;2023-04-01T04:07:02;3.30;;;1.40;;
75810;SDS011;64449;50.016;19.954;2023-04-01T04:09:29;4.00;;;1.00;;
75810;SDS011;64449;50.016;19.954;2023-04-01T04:11:55;1.70;;;0.80;;
75810;SDS011;64449;50.016;19.954;2023-04-01T04:14:22;2.00;;;0.90;;
75810;SDS011;64449;50.016;19.954;2023-04-01T04:16:48;3.40;;;1.10;;
75810;SDS011;64449;50.016;19.954;2023-04-01T04:19:13;2.70;;;1.00;;
75810;SDS011;64449;50.016;19.954;2023-04-01T04:21:40;3.40;;;1.00;;
75810;SDS011;64449;50.016;19.954;2023-04-01T04:24:06;3.60;;;1.00;;
75810;SDS011;64449;50.016;19.954;2023-04-01T04:26:31;2.70;;;1.30;;
75810;SDS011;64449;50.016;19.954;2023-04-01T04:28:57;2.50;;;0.90;;
75810;SDS011;64449;50.016;19.954;2023-04-01T04:31:22;2.10;;;1.00;;
75810;SDS011;64449;50.016;19.954;2023-04-01T04:33:50;3.60;;;1.10;;
75810;SDS011;64449;50.016;19.954;2023-04-01T04:36:16;3.40;;;1.10;;
75810;SDS011;64449;50.016;19.954;2023-04-01T04:38:43;3.00;;;0.90;;
75810;SDS011;64449;50.016;19.954;2023-04-01T04:41:17;3.40;;;0.90;;
75810;SDS011;64449;50.016;19.954;2023-04-01T04:43:54;4.00;;;1.00;;
75810;SDS011;64449;50.016;19.954;2023-04-01T04:46:21;2.50;;;1.10;;
75810;SDS011;64449;50.016;19.954;2023-04-01T04:48:47;2.50;;;1.00;;
75810;SDS011;64449;50.016;19.954;2023-04-01T04:51:13;3.70;;;1.30;;
75810;SDS011;64449;50.016;19.954;2023-04-01T04:53:43;3.30;;;1.40;;
75810;SDS011;64449;50.016;19.954;2023-04-01T04:56:10;3.40;;;1.40;;
75810;SDS011;64449;50.016;19.954;2023-04-01T04:58:36;5.70;;;2.50;;
75810;SDS011;64449;50.016;19.954;2023-04-01T05:01:06;3.00;;;1.70;;
75810;SDS011;64449;50.016;19.954;2023-04-01T05:03:33;6.40;;;2.40;;
75810;SDS011;64449;50.016;19.954;2023-04-01T05:05:59;6.00;;;2.30;;
75810;SDS011;64449;50.016;19.954;2023-04-01T05:08:24;4.70;;;1.40;;
75810;SDS011;64449;50.016;19.954;2023-04-01T05:10:50;6.00;;;1.10;;
75810;SDS011;64449;50.016;19.954;2023-04-01T05:13:15;3.10;;;1.20;;
75810;SDS011;64449;50.016;19.954;2023-04-01T05:15:41;2.60;;;1.20;;
75810;SDS011;64449;50.016;19.954;2023-04-01T05:18:06;4.10;;;1.10;;
75810;SDS011;64449;50.016;19.954;2023-04-01T05:20:32;4.50;;;0.90;;
75810;SDS011;64449;50.016;19.954;2023-04-01T05:22:58;3.40;;;1.20;;
75810;SDS011;64449;50.016;19.954;2023-04-01T05:25:24;4.10;;;1.30;;
75810;SDS011;64449;50.016;19.954;2023-04-01T05:27:49;3.40;;;1.20;;
75810;SDS011;64449;50.016;19.954;2023-04-01T05:30:15;3.00;;;1.20;;
75810;SDS011;64449;50.016;19.954;2023-04-01T05:32:40;2.70;;;1.10;;
75810;SDS011;64449;50.016;19.954;2023-04-01T05:35:06;3.50;;;1.60;;
75810;SDS011;64449;50.016;19.954;2023-04-01T05:37:33;2.90;;;0.80;;
75810;SDS011;64449;50.016;19.954;2023-04-01T05:39:59;4.50;;;1.30;;
75810;SDS011;64449;50.016;19.954;2023-04-01T05:42:25;4.70;;;1.60;;
75810;SDS011;64449;50.016;19.954;2023-04-01T05:44:50;3.20;;;1.10;;
75810;SDS011;64449;50.016;19.954;2023-04-01T05:47:16;2.70;;;0.90;;
75810;SDS011;64449;50.016;19.954;2023-04-01T05:49:41;3.70;;;1.50;;
75810;SDS011;64449;50.016;19.954;2023-04-01T05:52:07;3.60;;;2.00;;
75810;SDS011;64449;50.016;19.954;2023-04-01T05:54:32;3.80;;;1.00;;
75810;SDS011;64449;50.016;19.954;2023-04-01T05:56:58;5.10;;;1.30;;
75810;SDS011;64449;50.016;19.954;2023-04-01T05:59:23;4.00;;;1.40;;
75810;SDS011;64449;50.016;19.954;2023-04-01T06:01:49;3.10;;;1.00;;
75810;SDS011;64449;50.016;19.954;2023-04-01T06:04:16;4.70;;;1.40;;
75810;SDS011;64449;50.016;19.954;2023-04-01T06:06:43;4.30;;;1.30;;
75810;SDS011;64449;50.016;19.954;2023-04-01T06:09:13;5.30;;;1.30;;
75810;SDS011;64449;50.016;19.954;2023-04-01T06:11:55;2.60;;;1.20;;
75810;SDS011;64449;50.016;19.954;2023-04-01T06:53:52;3.20;;;1.40;;
75810;SDS011;64449;50.016;19.954;2023-04-01T06:56:26;2.40;;;1.10;;
75810;SDS011;64449;50.016;19.954;2023-04-01T06:59:02;2.80;;;1.20;;
75810;SDS011;64449;50.016;19.954;2023-04-01T07:04:13;5.30;;;1.40;;
75810;SDS011;64449;50.016;19.954;2023-04-01T07:06:52;3.00;;;1.40;;
75810;SDS011;64449;50.016;19.954;2023-04-01T07:15:20;5.00;;;1.50;;
75810;SDS011;64449;50.016;19.954;2023-04-01T07:17:57;3.80;;;1.10;;
75810;SDS011;64449;50.016;19.954;2023-04-01T07:20:29;2.70;;;1.00;;
75810;SDS011;64449;50.016;19.954;2023-04-01T07:22:58;2.80;;;1.30;;
75810;SDS011;64449;50.016;19.954;2023-04-01T07:25:30;3.70;;;1.40;;
75810;SDS011;64449;50.016;19.954;2023-04-01T07:28:11;4.00;;;1.60;;
75810;SDS011;64449;50.016;19.954;2023-04-01T07:33:16;3.10;;;1.00;;
75810;SDS011;64449;50.016;19.954;2023-04-01T07:44:24;4.70;;;1.10;;
75810;SDS011;64449;50.016;19.954;2023-04-01T07:49:45;3.30;;;1.00;;
75810;SDS011;64449;50.016;19.954;2023-04-01T07:55:23;2.90;;;1.20;;
75810;SDS011;64449;50.016;19.954;2023-04-01T08:00:58;3.20;;;1.30;;
75810;SDS011;64449;50.016;19.954;2023-04-01T08:03:46;3.30;;;1.60;;
75810;SDS011;64449;50.016;19.954;2023-04-01T08:06:17;3.30;;;1.00;;
75810;SDS011;64449;50.016;19.954;2023-04-01T08:14:08;6.00;;;1.30;;
75810;SDS011;64449;50.016;19.954;2023-04-01T08:16:47;2.30;;;0.80;;
75810;SDS011;64449;50.016;19.954;2023-04-01T08:22:11;3.30;;;0.90;;
75810;SDS011;64449;50.016;19.954;2023-04-01T08:24:45;2.80;;;1.20;;
75810;SDS011;64449;50.016;19.954;2023-04-01T08:32:26;3.10;;;1.10;;
75810;SDS011;64449;50.016;19.954;2023-04-01T08:35:46;1.70;;;0.80;;
75810;SDS011;64449;50.016;19.954;2023-04-01T08:37:48;3.90;;;1.50;;
75810;SDS011;64449;50.016;19.954;2023-04-01T08:45:41;2.40;;;1.00;;
75810;SDS011;64449;50.016;19.954;2023-04-01T09:16:42;2.80;;;1.40;;
75810;SDS011;64449;50.016;19.954;2023-04-01T09:21:46;1.70;;;0.90;;
75810;SDS011;64449;50.016;19.954;2023-04-01T09:24:56;2.20;;;1.00;;
75810;SDS011;64449;50.016;19.954;2023-04-01T09:30:33;1.70;;;0.80;;
75810;SDS011;64449;50.016;19.954;2023-04-01T09:41:30;2.50;;;0.90;;
75810;SDS011;64449;50.016;19.954;2023-04-01T10:34:54;3.60;;;2.00;;
75810;SDS011;64449;50.016;19.954;2023-04-01T10:54:30;3.50;;;1.60;;
75810;SDS011;64449;50.016;19.954;2023-04-01T11:03:06;4.50;;;1.60;;
75810;SDS011;64449;50.016;19.954;2023-04-01T11:16:57;2.70;;;1.10;;
75810;SDS011;64449;50.016;19.954;2023-04-01T11:25:20;2.20;;;1.30;;
75810;SDS011;64449;50.016;19.954;2023-04-01T11:31:21;3.60;;;1.70;;
75810;SDS011;64449;50.016;19.954;2023-04-01T11:39:14;2.90;;;1.40;;
75810;SDS011;64449;50.016;19.954;2023-04-01T11:44:22;1.90;;;0.80;;
75810;SDS011;64449;50.016;19.954;2023-04-01T11:47:13;1.70;;;0.80;;
75810;SDS011;64449;50.016;19.954;2023-04-01T12:22:00;2.80;;;1.30;;
75810;SDS011;64449;50.016;19.954;2023-04-01T12:25:04;2.40;;;1.10;;
75810;SDS011;64449;50.016;19.954;2023-04-01T12:36:26;3.60;;;1.50;;
75810;SDS011;64449;50.016;19.954;2023-04-01T12:49:53;3.00;;;1.30;;
75810;SDS011;64449;50.016;19.954;2023-04-01T12:55:37;2.70;;;1.40;;
75810;SDS011;64449;50.016;19.954;2023-04-01T13:07:01;2.20;;;1.10;;
75810;SDS011;64449;50.016;19.954;2023-04-01T13:15:28;3.00;;;1.30;;
75810;SDS011;64449;50.016;19.954;2023-04-01T13:21:16;3.50;;;1.80;;
75810;SDS011;64449;50.016;19.954;2023-04-01T13:37:27;3.30;;;1.40;;
75810;SDS011;64449;50.016;19.954;2023-04-01T13:42:28;3.00;;;1.00;;
75810;SDS011;64449;50.016;19.954;2023-04-01T13:45:21;3.00;;;1.00;;
75810;SDS011;64449;50.016;19.954;2023-04-01T14:12:06;3.10;;;1.60;;
75810;SDS011;64449;50.016;19.954;2023-04-01T14:14:52;2.20;;;0.80;;
75810;SDS011;64449;50.016;19.954;2023-04-01T14:25:39;3.10;;;1.30;;
75810;SDS011;64449;50.016;19.954;2023-04-01T14:40:15;4.30;;;1.50;;
75810;SDS011;64449;50.016;19.954;2023-04-01T14:43:13;3.30;;;1.50;;
75810;SDS011;64449;50.016;19.954;2023-04-01T14:46:05;3.70;;;1.50;;
75810;SDS011;64449;50.016;19.954;2023-04-01T14:48:37;5.10;;;2.50;;
75810;SDS011;64449;50.016;19.954;2023-04-01T14:59:01;4.60;;;2.00;;
75810;SDS011;64449;50.016;19.954;2023-04-01T15:10:18;5.20;;;2.80;;
75810;SDS011;64449;50.016;19.954;2023-04-01T15:38:27;4.90;;;2.60;;
75810;SDS011;64449;50.016;19.954;2023-04-01T15:41:16;5.60;;;2.60;;
75810;SDS011;64449;50.016;19.954;2023-04-01T15:43:49;5.20;;;2.40;;
75810;SDS011;64449;50.016;19.954;2023-04-01T15:52:06;5.80;;;3.10;;
75810;SDS011;64449;50.016;19.954;2023-04-01T16:19:59;8.20;;;4.10;;
75810;SDS011;64449;50.016;19.954;2023-04-01T16:22:28;5.50;;;2.80;;
75810;SDS011;64449;50.016;19.954;2023-04-01T16:27:56;5.70;;;3.10;;
75810;SDS011;64449;50.016;19.954;2023-04-01T16:30:39;7.90;;;4.40;;
75810;SDS011;64449;50.016;19.954;2023-04-01T16:37:03;10.20;;;4.10;;
75810;SDS011;64449;50.016;19.954;2023-04-01T16:41:42;7.30;;;3.80;;
75810;SDS011;64449;50.016;19.954;2023-04-01T16:44:44;5.90;;;4.10;;
75810;SDS011;64449;50.016;19.954;2023-04-01T16:47:12;6.90;;;4.00;;
75810;SDS011;64449;50.016;19.954;2023-04-01T16:55:18;6.20;;;4.10;;
75810;SDS011;64449;50.016;19.954;2023-04-01T17:00:17;9.50;;;4.70;;
75810;SDS011;64449;50.016;19.954;2023-04-01T17:02:52;6.00;;;3.30;;
75810;SDS011;64449;50.016;19.954;2023-04-01T17:05:21;4.50;;;2.70;;
75810;SDS011;64449;50.016;19.954;2023-04-01T17:13:34;4.80;;;2.70;;
75810;SDS011;64449;50.016;19.954;2023-04-01T17:19:14;4.90;;;2.30;;
75810;SDS011;64449;50.016;19.954;2023-04-01T17:22:17;4.90;;;2.20;;
75810;SDS011;64449;50.016;19.954;2023-04-01T17:30:53;6.80;;;2.50;;
75810;SDS011;64449;50.016;19.954;2023-04-01T17:33:25;6.00;;;3.80;;
75810;SDS011;64449;50.016;19.954;2023-04-01T17:36:25;4.40;;;2.90;;
75810;SDS011;64449;50.016;19.954;2023-04-01T17:47:31;6.60;;;3.10;;
75810;SDS011;64449;50.016;19.954;2023-04-01T17:52:52;6.60;;;3.50;;
75810;SDS011;64449;50.016;19.954;2023-04-01T18:01:00;6.00;;;3.20;;
75810;SDS011;64449;50.016;19.954;2023-04-01T18:22:36;7.70;;;5.10;;
75810;SDS011;64449;50.016;19.954;2023-04-01T18:25:15;8.30;;;4.50;;
75810;SDS011;64449;50.016;19.954;2023-04-01T18:27:49;10.50;;;5.40;;
75810;SDS011;64449;50.016;19.954;2023-04-01T18:33:05;8.30;;;5.10;;
75810;SDS011;64449;50.016;19.954;2023-04-01T18:38:40;9.30;;;4.90;;
75810;SDS011;64449;50.016;19.954;2023-04-01T18:41:14;11.50;;;6.80;;
75810;SDS011;64449;50.016;19.954;2023-04-01T18:43:59;12.00;;;6.60;;
75810;SDS011;64449;50.016;19.954;2023-04-01T18:49:21;10.90;;;6.10;;
75810;SDS011;64449;50.016;19.954;2023-04-01T18:52:13;8.40;;;5.90;;
75810;SDS011;64449;50.016;19.954;2023-04-01T18:57:25;8.40;;;5.80;;
75810;SDS011;64449;50.016;19.954;2023-04-01T19:00:04;10.40;;;5.90;;
75810;SDS011;64449;50.016;19.954;2023-04-01T19:02:43;10.00;;;5.90;;
75810;SDS011;64449;50.016;19.954;2023-04-01T19:05:19;10.60;;;5.60;;
75810;SDS011;64449;50.016;19.954;2023-04-01T19:07:53;11.80;;;6.10;;
75810;SDS011;64449;50.016;19.954;2023-04-01T19:13:11;9.70;;;6.40;;
75810;SDS011;64449;50.016;19.954;2023-04-01T19:21:56;10.80;;;7.10;;
75810;SDS011;64449;50.016;19.954;2023-04-01T20:05:25;13.80;;;7.80;;
75810;SDS011;64449;50.016;19.954;2023-04-01T20:07:52;14.20;;;9.00;;
75810;SDS011;64449;50.016;19.954;2023-04-01T20:10:21;13.00;;;9.00;;
75810;SDS011;64449;50.016;19.954;2023-04-01T20:13:00;11.50;;;7.00;;
75810;SDS011;64449;50.016;19.954;2023-04-01T20:15:46;12.00;;;7.60;;
75810;SDS011;64449;50.016;19.954;2023-04-01T20:21:18;14.40;;;9.90;;
75810;SDS011;64449;50.016;19.954;2023-04-01T20:23:50;15.20;;;9.40;;
75810;SDS011;64449;50.016;19.954;2023-04-01T20:26:30;13.50;;;8.60;;
75810;SDS011;64449;50.016;19.954;2023-04-01T20:34:35;17.80;;;11.30;;
75810;SDS011;64449;50.016;19.954;2023-04-01T20:45:51;14.60;;;9.70;;
75810;SDS011;64449;50.016;19.954;2023-04-01T20:51:12;17.20;;;11.60;;
75810;SDS011;64449;50.016;19.954;2023-04-01T20:53:43;16.60;;;11.70;;
75810;SDS011;64449;50.016;19.954;2023-04-01T21:13:24;18.80;;;11.60;;
75810;SDS011;64449;50.016;19.954;2023-04-01T21:19:03;16.30;;;11.10;;
75810;SDS011;64449;50.016;19.954;2023-04-01T21:27:11;16.50;;;11.20;;
75810;SDS011;64449;50.016;19.954;2023-04-01T21:46:28;19.70;;;11.80;;
75810;SDS011;64449;50.016;19.954;2023-04-01T22:05:37;17.70;;;11.70;;
75810;SDS011;64449;50.016;19.954;2023-04-01T22:08:17;14.70;;;9.80;;
75810;SDS011;64449;50.016;19.954;2023-04-01T22:10:59;15.80;;;10.20;;
75810;SDS011;64449;50.016;19.954;2023-04-01T22:16:25;15.40;;;10.70;;
75810;SDS011;64449;50.016;19.954;2023-04-01T22:24:57;19.10;;;11.80;;
75810;SDS011;64449;50.016;19.954;2023-04-01T22:27:38;18.10;;;11.80;;
75810;SDS011;64449;50.016;19.954;2023-04-01T22:33:00;19.20;;;11.20;;
75810;SDS011;64449;50.016;19.954;2023-04-01T22:35:40;16.20;;;9.90;;
75810;SDS011;64449;50.016;19.954;2023-04-01T22:41:28;18.60;;;10.20;;
75810;SDS011;64449;50.016;19.954;2023-04-01T22:43:56;15.90;;;11.00;;
75810;SDS011;64449;50.016;19.954;2023-04-01T22:49:14;20.10;;;12.70;;
75810;SDS011;64449;50.016;19.954;2023-04-01T22:51:56;18.00;;;11.40;;
75810;SDS011;64449;50.016;19.954;2023-04-01T22:57:01;16.30;;;9.80;;
75810;SDS011;64449;50.016;19.954;2023-04-01T23:05:54;15.50;;;10.30;;
75810;SDS011;64449;50.016;19.954;2023-04-01T23:11:23;16.90;;;10.80;;
75810;SDS011;64449;50.016;19.954;2023-04-01T23:16:57;16.40;;;10.50;;
75810;SDS011;64449;50.016;19.954;2023-04-01T23:38:17;17.40;;;11.30;;
75810;SDS011;64449;50.016;19.954;2023-04-01T23:40:46;17.80;;;11.20;;
75810;SDS011;64449;50.016;19.954;2023-04-01T23:43:14;19.10;;;10.80;;
75810;SDS011;64449;50.016;19.954;2023-04-01T23:45:47;19.40;;;12.10;;
75810;SDS011;64449;50.016;19.954;2023-04-01T23:48:13;24.90;;;14.10;;
75810;SDS011;64449;50.016;19.954;2023-04-01T23:50:41;17.90;;;11.50;;
75810;SDS011;64449;50.016;19.954;2023-04-01T23:55:43;17.00;;;11.10;;
